createdAt,value
2022-08-09T00:02:51.556Z,99556.73
2022-08-09T00:06:18.064Z,99551.56
2022-08-09T00:09:26.463Z,99556.11
2022-08-09T00:12:44.323Z,99556.73
2022-08-09T00:16:02.430Z,99560.24
2022-08-09T00:19:20.651Z,99560.86
2022-08-09T00:22:36.692Z,99555.51
2022-08-09T00:25:54.820Z,99556.54
2022-08-09T00:30:10.005Z,99559.22
2022-08-09T00:32:30.309Z,99557.38
2022-08-09T00:35:46.463Z,99560.24
2022-08-09T00:39:04.731Z,99567.69
2022-08-09T00:44:14.246Z,99559.64
2022-08-09T00:45:39.210Z,99565.81
2022-08-09T00:48:58.034Z,99564.80
2022-08-09T00:52:17.628Z,99563.14
2022-08-09T00:56:05.534Z,99570.16
2022-08-09T00:58:54.283Z,99567.69
2022-08-09T01:02:12.233Z,99563.35
2022-08-09T01:05:53.725Z,99568.08
2022-08-09T01:09:06.216Z,99568.92
2022-08-09T01:12:29.313Z,99573.45
2022-08-09T01:15:52.717Z,99573.88
2022-08-09T01:19:40.156Z,99578.00
2022-08-09T01:24:02.651Z,99580.69
2022-08-09T01:27:13.331Z,99582.11
2022-08-09T01:30:35.421Z,99582.95
2022-08-09T01:33:54.695Z,99576.14
2022-08-09T01:37:14.396Z,99571.81
2022-08-09T01:40:36.220Z,99581.69
2022-08-09T01:43:56.352Z,99577.98
2022-08-09T01:47:17.416Z,99583.55
2022-08-09T01:50:37.136Z,99576.13
2022-08-09T01:53:53.774Z,99575.09
2022-08-09T01:57:16.640Z,99584.16
2022-08-09T02:00:35.819Z,99579.23
2022-08-09T02:03:52.969Z,99583.53
2022-08-09T02:08:36.088Z,99585.19
2022-08-09T02:10:38.008Z,99576.34
2022-08-09T02:14:07.737Z,99579.23
2022-08-09T02:17:59.424Z,99583.14
2022-08-09T02:20:36.881Z,99586.00
2022-08-09T02:23:59.048Z,99587.05
2022-08-09T02:27:20.172Z,99582.09
2022-08-09T02:30:43.270Z,99586.42
2022-08-09T02:34:13.788Z,99582.91
2022-08-09T02:37:31.887Z,99585.97
2022-08-09T02:40:49.337Z,99589.89
2022-08-09T02:44:10.353Z,99583.30
2022-08-09T02:47:27.302Z,99596.48
2022-08-09T02:50:51.886Z,99590.06
2022-08-09T02:54:10.578Z,99594.40
2022-08-09T02:57:30.066Z,99595.63
2022-08-09T03:00:58.408Z,99598.27
2022-08-09T03:04:18.239Z,99601.37
2022-08-09T03:07:30.230Z,99608.97
2022-08-09T03:10:52.447Z,99605.66
2022-08-09T03:14:10.069Z,99614.11
2022-08-09T03:17:27.991Z,99614.31
2022-08-09T03:20:45.038Z,99615.13
2022-08-09T03:24:04.746Z,99614.31
2022-08-09T03:27:22.190Z,99615.34
2022-08-09T03:30:39.889Z,99613.27
2022-08-09T03:34:02.566Z,99607.48
2022-08-09T03:37:55.317Z,99608.12
2022-08-09T03:40:37.678Z,99602.39
2022-08-09T03:44:08.540Z,99609.83
2022-08-09T03:47:14.727Z,99603.84
2022-08-09T03:50:34.467Z,99614.38
2022-08-09T03:53:53.535Z,99617.91
2022-08-09T03:57:20.334Z,99616.11
2022-08-09T04:00:35.348Z,99609.09
2022-08-09T04:04:02.060Z,99616.11
2022-08-09T04:07:12.262Z,99619.42
2022-08-09T04:10:30.896Z,99619.21
2022-08-09T04:14:54.055Z,99619.21
2022-08-09T04:17:05.418Z,99616.11
2022-08-09T04:20:23.239Z,99626.22
2022-08-09T04:23:39.645Z,99626.64
2022-08-09T04:26:56.021Z,99631.40
2022-08-09T04:30:14.063Z,99625.02
2022-08-09T04:33:32.502Z,99626.45
2022-08-09T04:36:50.599Z,99625.81
2022-08-09T04:40:06.894Z,99632.63
2022-08-09T04:43:26.698Z,99635.94
2022-08-09T04:46:58.220Z,99641.29
2022-08-09T04:50:01.503Z,99634.72
2022-08-09T04:53:17.706Z,99628.93
2022-08-09T04:56:33.715Z,99627.08
2022-08-09T04:59:51.308Z,99632.03
2022-08-09T05:03:24.144Z,99630.77
2022-08-09T05:06:29.092Z,99635.09
2022-08-09T05:09:50.114Z,99631.79
2022-08-09T05:13:03.958Z,99632.39
2022-08-09T05:16:20.430Z,99641.91
2022-08-09T05:19:44.888Z,99646.66
2022-08-09T05:23:54.288Z,99646.66
2022-08-09T05:26:16.131Z,99647.91
2022-08-09T05:29:35.438Z,99651.80
2022-08-09T05:32:53.228Z,99648.28
2022-08-09T05:36:09.661Z,99648.13
2022-08-09T05:39:29.553Z,99654.93
2022-08-09T05:42:45.119Z,99645.84
2022-08-09T05:46:02.464Z,99655.33
2022-08-09T05:50:11.072Z,99655.11
2022-08-09T05:52:38.726Z,99656.17
2022-08-09T05:55:55.283Z,99658.64
2022-08-09T05:59:11.552Z,99660.30
2022-08-09T06:02:29.702Z,99661.73
2022-08-09T06:05:49.995Z,99663.39
2022-08-09T06:09:23.167Z,99663.17
2022-08-09T06:12:32.890Z,99664.61
2022-08-09T06:15:42.475Z,99665.61
2022-08-09T06:18:58.907Z,99671.17
2022-08-09T06:22:28.992Z,99665.97
2022-08-09T06:25:43.338Z,99664.09
2022-08-09T06:29:04.979Z,99661.72
2022-08-09T06:33:00.900Z,99670.53
2022-08-09T06:35:56.573Z,99664.27
2022-08-09T06:38:56.938Z,99659.22
2022-08-09T06:42:11.619Z,99666.75
2022-08-09T06:46:05.909Z,99661.05
2022-08-09T06:48:46.240Z,99672.75
2022-08-09T06:52:02.177Z,99675.88
2022-08-09T06:55:23.195Z,99682.14
2022-08-09T07:00:47.654Z,99676.63
2022-08-09T07:01:57.677Z,99680.98
2022-08-09T07:05:18.194Z,99676.94
2022-08-09T07:08:39.591Z,99685.39
2022-08-09T07:11:56.130Z,99692.34
2022-08-09T07:16:38.506Z,99684.40
2022-08-09T07:18:28.817Z,99693.20
2022-08-09T07:21:55.750Z,99694.25
2022-08-09T07:25:09.838Z,99698.80
2022-08-09T07:28:26.169Z,99698.08
2022-08-09T07:31:44.951Z,99704.10
2022-08-09T07:35:00.419Z,99705.85
2022-08-09T07:38:18.450Z,99712.77
2022-08-09T07:41:38.951Z,99719.95
2022-08-09T07:44:55.414Z,99710.89
2022-08-09T07:48:22.565Z,99715.73
2022-08-09T07:52:05.618Z,99717.94
2022-08-09T07:54:51.421Z,99724.78
2022-08-09T07:58:05.347Z,99723.03
2022-08-09T08:01:32.721Z,99718.27
2022-08-09T08:04:42.589Z,99716.67
2022-08-09T08:08:44.650Z,99726.75
2022-08-09T08:12:10.260Z,99723.66
2022-08-09T08:14:36.810Z,99719.64
2022-08-09T08:17:58.149Z,99724.76
2022-08-09T08:21:14.251Z,99727.45
2022-08-09T08:24:35.368Z,99727.58
2022-08-09T08:27:50.365Z,99728.82
2022-08-09T08:31:13.681Z,99736.69
2022-08-09T08:34:25.417Z,99739.05
2022-08-09T08:38:02.017Z,99742.48
2022-08-09T08:41:06.213Z,99742.03
2022-08-09T08:44:28.832Z,99746.50
2022-08-09T08:47:44.884Z,99735.97
2022-08-09T08:51:01.428Z,99736.06
2022-08-09T08:54:20.545Z,99731.03
2022-08-09T08:57:38.004Z,99737.43
2022-08-09T09:00:57.011Z,99745.63
2022-08-09T09:04:17.540Z,99744.19
2022-08-09T09:07:42.892Z,99739.55
2022-08-09T09:11:01.859Z,99746.13
2022-08-09T09:14:25.821Z,99744.48
2022-08-09T09:17:48.524Z,99749.05
2022-08-09T09:21:04.178Z,99739.81
2022-08-09T09:24:21.709Z,99748.38
2022-08-09T09:28:05.699Z,99746.27
2022-08-09T09:31:06.813Z,99747.27
2022-08-09T09:34:25.284Z,99748.94
2022-08-09T09:37:41.936Z,99743.02
2022-08-09T09:40:57.886Z,99764.88
2022-08-09T09:44:15.861Z,99744.39
2022-08-09T09:47:40.756Z,99747.90
2022-08-09T09:50:56.933Z,99735.45
2022-08-09T09:54:20.668Z,99744.05
2022-08-09T09:58:00.598Z,99742.78
2022-08-09T10:00:59.042Z,99739.00
2022-08-09T10:04:22.749Z,99736.29
2022-08-09T10:08:10.641Z,99728.89
2022-08-09T10:10:58.903Z,99739.38
2022-08-09T10:14:32.949Z,99734.06
2022-08-09T10:17:55.949Z,99723.82
2022-08-09T10:21:15.385Z,99734.86
2022-08-09T10:24:35.996Z,99718.66
2022-08-09T10:27:56.076Z,99723.40
2022-08-09T10:34:32.902Z,99715.64
2022-08-09T10:37:47.939Z,99727.69
2022-08-09T10:41:06.474Z,99713.03
2022-08-09T10:44:32.219Z,99718.26
2022-08-09T10:48:20.265Z,99722.59
2022-08-09T10:51:29.972Z,99716.02
2022-08-09T10:54:49.968Z,99709.27
2022-08-09T10:58:08.704Z,99707.90
2022-08-09T11:03:11.987Z,99702.47
2022-08-09T11:05:25.286Z,99712.56
2022-08-09T11:08:53.332Z,99704.41
2022-08-09T11:12:22.211Z,99696.33
2022-08-09T11:15:50.773Z,99697.75
2022-08-09T11:18:58.103Z,99698.28
2022-08-09T11:22:18.721Z,99700.50
2022-08-09T11:25:54.726Z,99701.15
2022-08-09T11:29:11.971Z,99687.45
2022-08-09T11:32:51.118Z,99683.42
2022-08-09T11:36:14.682Z,99688.22
2022-08-09T11:39:38.084Z,99686.58
2022-08-09T11:42:55.098Z,99680.22
2022-08-09T11:46:18.481Z,99675.51
2022-08-09T11:50:55.163Z,99681.83
2022-08-09T11:53:58.515Z,99666.80
2022-08-09T11:56:49.297Z,99676.69
2022-08-09T12:00:13.025Z,99674.58
2022-08-09T12:03:55.121Z,99678.06
2022-08-09T12:06:55.721Z,99671.93
2022-08-09T12:10:14.450Z,99663.28
2022-08-09T12:14:10.160Z,99669.77
2022-08-09T12:17:27.849Z,99660.25
2022-08-09T12:20:31.652Z,99663.22
2022-08-09T12:24:06.551Z,99664.54
2022-08-09T12:29:12.149Z,99655.61
2022-08-09T12:30:43.819Z,99654.03
2022-08-09T12:34:01.721Z,99650.67
2022-08-09T12:37:24.014Z,99648.41
2022-08-09T12:40:36.498Z,99646.77
2022-08-09T12:44:06.149Z,99639.29
2022-08-09T12:47:11.990Z,99644.19
2022-08-09T12:50:28.929Z,99632.22
2022-08-09T12:53:52.745Z,99632.39
2022-08-09T12:57:05.151Z,99624.91
2022-08-09T13:00:30.418Z,99631.71
2022-08-09T13:03:53.805Z,99630.91
2022-08-09T13:07:04.415Z,99635.35
2022-08-09T13:10:20.957Z,99624.27
2022-08-09T13:14:41.457Z,99613.81
2022-08-09T13:17:04.236Z,99620.07
2022-08-09T13:20:23.314Z,99613.48
2022-08-09T13:24:42.009Z,99612.10
2022-08-09T13:27:13.170Z,99611.04
2022-08-09T13:30:51.051Z,99608.91
2022-08-09T13:33:54.324Z,99621.13
2022-08-09T13:37:51.367Z,99605.69
2022-08-09T13:41:55.414Z,99607.33
2022-08-09T13:43:52.122Z,99610.49
2022-08-09T13:47:27.453Z,99608.75
2022-08-09T13:50:30.506Z,99615.16
2022-08-09T13:53:47.605Z,99613.94
2022-08-09T13:57:06.429Z,99615.25
2022-08-09T14:00:28.737Z,99606.80
2022-08-09T14:04:03.610Z,99612.80
2022-08-09T14:07:08.413Z,99605.27
2022-08-09T14:10:37.563Z,99610.97
2022-08-09T14:14:22.681Z,99612.69
2022-08-09T14:17:08.209Z,99619.20
2022-08-09T14:20:29.252Z,99613.78
2022-08-09T14:23:54.525Z,99624.35
2022-08-09T14:27:19.684Z,99615.97
2022-08-09T14:30:37.369Z,99616.78
2022-08-09T14:33:42.911Z,99615.16
2022-08-09T14:36:59.382Z,99625.41
2022-08-09T14:40:18.666Z,99618.61
2022-08-09T14:43:47.514Z,99615.91
2022-08-09T14:47:14.766Z,99617.80
2022-08-09T14:50:17.390Z,99609.68
2022-08-09T14:53:39.044Z,99610.75
2022-08-09T14:56:57.315Z,99618.36
2022-08-09T15:00:15.319Z,99612.13
2022-08-09T15:03:40.666Z,99612.61
2022-08-09T15:07:02.309Z,99608.77
2022-08-09T15:10:19.365Z,99611.96
2022-08-09T15:13:48.193Z,99608.70
2022-08-09T15:16:54.666Z,99610.02
2022-08-09T15:21:55.401Z,99610.25
2022-08-09T15:24:02.030Z,99609.44
2022-08-09T15:26:53.386Z,99605.92
2022-08-09T15:30:57.554Z,99610.83
2022-08-09T15:34:16.239Z,99612.66
2022-08-09T15:36:48.499Z,99615.84
2022-08-09T15:40:11.472Z,99612.89
2022-08-09T15:43:24.995Z,99615.84
2022-08-09T15:46:43.661Z,99613.88
2022-08-09T15:50:05.211Z,99621.99
2022-08-09T15:54:05.417Z,99614.86
2022-08-09T15:56:40.962Z,99614.56
2022-08-09T15:59:57.322Z,99616.69
2022-08-09T16:03:18.839Z,99611.19
2022-08-09T16:06:37.677Z,99608.96
2022-08-09T16:10:02.468Z,99613.82
2022-08-09T16:13:18.620Z,99615.44
2022-08-09T16:16:31.876Z,99614.38
2022-08-09T16:19:49.467Z,99614.38
2022-08-09T16:23:06.413Z,99621.36
2022-08-09T16:26:35.507Z,99614.55
2022-08-09T16:29:50.450Z,99616.92
2022-08-09T16:33:16.728Z,99623.64
2022-08-09T16:36:35.630Z,99608.95
2022-08-09T16:40:04.991Z,99612.71
2022-08-09T16:43:10.782Z,99612.97
2022-08-09T16:46:27.502Z,99616.48
2022-08-09T16:50:32.627Z,99618.59
2022-08-09T16:53:02.272Z,99615.89
2022-08-09T16:56:18.739Z,99620.97
2022-08-09T16:59:36.989Z,99614.75
2022-08-09T17:02:57.205Z,99618.77
2022-08-09T17:06:32.073Z,99624.09
2022-08-09T17:09:45.627Z,99622.91
2022-08-09T17:12:50.168Z,99621.52
2022-08-09T17:16:06.189Z,99628.48
2022-08-09T17:19:24.120Z,99630.04
2022-08-09T17:22:49.725Z,99625.94
2022-08-09T17:26:02.041Z,99633.46
2022-08-09T17:29:20.700Z,99631.26
2022-08-09T17:32:37.804Z,99639.84
2022-08-09T17:35:54.589Z,99636.79
2022-08-09T17:39:12.213Z,99634.58
2022-08-09T17:42:41.531Z,99630.48
2022-08-09T17:46:05.874Z,99632.00
2022-08-09T17:49:04.658Z,99644.12
2022-08-09T17:52:22.243Z,99649.18
2022-08-09T17:55:49.323Z,99642.63
2022-08-09T17:58:56.646Z,99653.92
2022-08-09T18:02:21.482Z,99660.75
2022-08-09T18:05:38.871Z,99655.59
2022-08-09T18:08:49.834Z,99669.92
2022-08-09T18:12:15.277Z,99667.92
2022-08-09T18:15:27.540Z,99669.56
2022-08-09T18:18:49.289Z,99683.66
2022-08-09T18:22:02.543Z,99687.42
2022-08-09T18:25:52.798Z,99687.66
2022-08-09T18:30:34.486Z,99688.95
2022-08-09T18:32:03.524Z,99693.16
2022-08-09T18:35:58.255Z,99697.38
2022-08-09T18:38:40.831Z,99698.67
2022-08-09T18:41:57.343Z,99700.20
2022-08-09T18:45:21.563Z,99699.61
2022-08-09T18:48:38.002Z,99700.30
2022-08-09T18:51:58.065Z,99706.98
2022-08-09T18:55:16.014Z,99710.73
2022-08-09T18:58:34.145Z,99710.37
2022-08-09T19:01:51.518Z,99705.41
2022-08-09T19:05:20.490Z,99708.05
2022-08-09T19:08:27.930Z,99712.58
2022-08-09T19:11:45.566Z,99700.28
2022-08-09T19:15:03.300Z,99705.76
2022-08-09T19:18:34.042Z,99710.39
2022-08-09T19:21:51.906Z,99708.95
2022-08-09T19:25:11.403Z,99707.41
2022-08-09T19:28:18.309Z,99703.22
2022-08-09T19:31:45.006Z,99702.02
2022-08-09T19:34:57.965Z,99702.13
2022-08-09T19:38:14.127Z,99701.23
2022-08-09T19:41:33.369Z,99701.77
2022-08-09T19:44:49.266Z,99697.67
2022-08-09T19:48:06.762Z,99707.05
2022-08-09T19:51:24.791Z,99700.70
2022-08-09T19:54:46.757Z,99694.53
2022-08-09T19:58:02.896Z,99692.92
2022-08-09T20:01:20.593Z,99694.58
2022-08-09T20:04:40.885Z,99707.42
2022-08-09T20:08:00.532Z,99700.84
2022-08-09T20:11:15.485Z,99707.05
2022-08-09T20:14:32.823Z,99710.80
2022-08-09T20:17:54.526Z,99709.80
2022-08-09T20:21:08.559Z,99701.98
2022-08-09T20:24:29.738Z,99702.38
2022-08-09T20:27:44.833Z,99711.06
2022-08-09T20:31:02.627Z,99712.30
2022-08-09T20:34:19.450Z,99717.25
2022-08-09T20:38:23.529Z,99721.58
2022-08-09T20:40:56.846Z,99718.48
2022-08-09T20:44:14.880Z,99720.55
2022-08-09T20:47:45.372Z,99715.16
2022-08-09T20:50:58.195Z,99715.17
2022-08-09T20:54:12.400Z,99717.44
2022-08-09T20:57:32.107Z,99722.20
2022-08-09T21:00:49.554Z,99720.94
2022-08-09T21:05:49.565Z,99725.06
2022-08-09T21:07:38.797Z,99725.88
2022-08-09T21:10:42.968Z,99727.72
2022-08-09T21:14:01.024Z,99719.86
2022-08-09T21:18:10.941Z,99708.70
2022-08-09T21:20:36.052Z,99707.48
2022-08-09T21:23:53.845Z,99716.33
2022-08-09T21:28:01.261Z,99720.45
2022-08-09T21:30:27.523Z,99717.94
2022-08-09T21:33:43.476Z,99723.08
2022-08-09T21:36:59.585Z,99727.59
2022-08-09T21:40:22.151Z,99723.63
2022-08-09T21:43:56.863Z,99728.55
2022-08-09T21:46:54.305Z,99724.41
2022-08-09T21:50:17.343Z,99720.08
2022-08-09T21:53:40.842Z,99717.78
2022-08-09T21:56:54.601Z,99715.72
2022-08-09T22:00:10.425Z,99708.48
2022-08-09T22:03:29.528Z,99715.23
2022-08-09T22:06:55.352Z,99713.56
2022-08-09T22:10:05.320Z,99711.23
2022-08-09T22:13:21.481Z,99711.65
2022-08-09T22:16:37.787Z,99715.75
2022-08-09T22:19:59.743Z,99715.92
2022-08-09T22:23:13.396Z,99719.38
2022-08-09T22:26:35.415Z,99720.44
2022-08-09T22:29:50.162Z,99715.25
2022-08-09T22:33:09.658Z,99708.20
2022-08-09T22:36:24.302Z,99701.81
2022-08-09T22:39:57.636Z,99705.88
2022-08-09T22:42:58.447Z,99702.39
2022-08-09T22:48:12.784Z,99698.05
2022-08-09T22:49:36.755Z,99708.72
2022-08-09T22:52:57.760Z,99704.95
2022-08-09T22:56:30.564Z,99704.72
2022-08-09T22:59:57.638Z,99711.08
2022-08-09T23:02:47.710Z,99711.83
2022-08-09T23:06:03.978Z,99715.34
2022-08-09T23:09:21.010Z,99711.78
2022-08-09T23:12:37.206Z,99706.80
2022-08-09T23:16:02.823Z,99705.98
2022-08-09T23:19:13.250Z,99709.23
2022-08-09T23:22:29.374Z,99707.97
2022-08-09T23:25:45.872Z,99704.00
2022-08-09T23:29:02.003Z,99704.85
2022-08-09T23:32:18.350Z,99710.77
2022-08-09T23:36:04.993Z,99704.80
2022-08-09T23:38:52.582Z,99699.94
2022-08-09T23:42:09.142Z,99701.59
2022-08-09T23:45:37.300Z,99702.56
2022-08-09T23:48:43.302Z,99700.28
2022-08-09T23:52:01.021Z,99701.29
2022-08-09T23:55:18.042Z,99710.52
2022-08-09T23:58:34.238Z,99707.59
